FAKM

Kimberley Airport

Kimberley, South Africa
METAR FAKM 241900Z AUTO 03003KT //// // ////// 23/05 Q1018
Observed Flight Rules
Sep-24 @ 19:00 UTC (27 minutes ago)
Wind
30° at 3 knots
Temperatures Readings
Current 23°C / 73°F
Dewpoint 5°C / 41°F
Humidity 31%
Altimeter 30.06" Hg
Pressure 1018 hPa
Elevation 1192
METAR FAKM 241900Z AUTO 03003KT //// // ////// 23/05 Q1018
Observed Flight Rules
Sep-24 @ 19:00 UTC
(27 minutes ago)
Wind
30° at 3 knots
Temperature Dewpoint
23°C / 73°F 5°C / 41°F
Humidity Altimeter Pressure
31% 30.06" Hg 1018 hPa